createdAt,value
2022-09-03T00:00:04.826Z,14.70
2022-09-03T00:02:40.094Z,14.60
2022-09-03T00:05:10.741Z,14.60
2022-09-03T00:07:59.531Z,14.50
2022-09-03T00:10:45.808Z,14.50
2022-09-03T00:13:19.891Z,14.40
2022-09-03T00:15:46.936Z,14.40
2022-09-03T00:18:20.660Z,14.50
2022-09-03T00:20:53.983Z,14.40
2022-09-03T00:23:23.711Z,14.40
2022-09-03T00:26:12.905Z,14.40
2022-09-03T00:28:49.147Z,14.40
2022-09-03T00:31:28.226Z,14.30
2022-09-03T00:34:06.023Z,14.30
2022-09-03T00:36:42.381Z,14.30
2022-09-03T00:39:15.272Z,14.30
2022-09-03T00:42:00.867Z,14.40
2022-09-03T00:45:00.873Z,14.30
2022-09-03T00:47:49.358Z,14.30
2022-09-03T00:50:50.482Z,14.20
2022-09-03T00:53:39.749Z,14.20
2022-09-03T00:56:54.724Z,14.20
2022-09-03T00:59:29.394Z,14.20
2022-09-03T01:02:14.750Z,14.20
2022-09-03T01:04:50.377Z,14.10
2022-09-03T01:07:46.403Z,14.10
2022-09-03T01:10:28.565Z,14.10
2022-09-03T01:13:03.255Z,14.10
2022-09-03T01:15:54.461Z,14.00
2022-09-03T01:18:28.650Z,14.10
2022-09-03T01:21:19.878Z,14.10
2022-09-03T01:24:11.161Z,14.00
2022-09-03T01:26:50.204Z,14.00
2022-09-03T01:29:39.942Z,14.10
2022-09-03T01:32:23.705Z,14.10
2022-09-03T01:35:08.779Z,14.10
2022-09-03T01:37:58.414Z,14.10
2022-09-03T01:40:34.262Z,14.00
2022-09-03T01:43:14.074Z,13.90
2022-09-03T01:45:51.127Z,14.00
2022-09-03T01:49:03.046Z,14.00
2022-09-03T01:51:31.429Z,14.00
2022-09-03T01:54:10.962Z,14.00
2022-09-03T01:57:35.773Z,14.00
2022-09-03T02:00:13.956Z,14.00
2022-09-03T02:02:43.586Z,13.90
2022-09-03T02:05:12.564Z,13.80
2022-09-03T02:07:42.768Z,13.80
2022-09-03T02:10:21.250Z,13.80
2022-09-03T02:13:01.924Z,13.80
2022-09-03T02:15:31.091Z,13.80
2022-09-03T02:18:02.119Z,13.80
2022-09-03T02:20:30.098Z,13.80
2022-09-03T02:22:58.408Z,13.80
2022-09-03T02:25:32.675Z,13.80
2022-09-03T02:28:00.992Z,13.80
2022-09-03T02:30:27.906Z,13.80
2022-09-03T02:32:54.676Z,13.80
2022-09-03T02:35:21.452Z,13.80
2022-09-03T02:37:48.237Z,13.80
2022-09-03T02:40:15.155Z,13.80
2022-09-03T02:42:42.150Z,13.80
2022-09-03T02:45:28.659Z,13.80
2022-09-03T02:47:58.869Z,13.70
2022-09-03T02:50:26.392Z,13.60
2022-09-03T02:52:53.519Z,13.50
2022-09-03T02:55:20.861Z,13.60
2022-09-03T02:57:47.577Z,13.60
2022-09-03T03:00:15.088Z,13.50
2022-09-03T03:02:42.034Z,13.50
2022-09-03T03:05:13.443Z,13.40
2022-09-03T03:07:41.189Z,13.40
2022-09-03T03:10:08.514Z,13.30
2022-09-03T03:12:35.406Z,13.30
2022-09-03T03:15:02.185Z,13.40
2022-09-03T03:17:28.972Z,13.30
2022-09-03T03:19:55.705Z,13.40
2022-09-03T03:22:22.417Z,13.30
2022-09-03T03:27:18.932Z,13.10
2022-09-03T03:29:45.654Z,13.20
2022-09-03T03:32:12.418Z,13.20
2022-09-03T03:34:39.960Z,13.20
2022-09-03T03:37:06.992Z,13.20
2022-09-03T03:39:33.804Z,13.10
2022-09-03T03:42:00.538Z,13.00
2022-09-03T03:44:27.265Z,13.00
2022-09-03T03:46:54.001Z,13.10
2022-09-03T03:49:20.947Z,13.20
2022-09-03T03:51:47.670Z,13.10
2022-09-03T03:54:14.559Z,13.20
2022-09-03T03:56:44.584Z,13.10
2022-09-03T03:59:17.574Z,13.20
2022-09-03T04:01:44.405Z,13.10
2022-09-03T04:04:11.227Z,13.10
2022-09-03T04:06:37.958Z,13.00
2022-09-03T04:09:04.710Z,13.00
2022-09-03T04:11:31.480Z,13.00
2022-09-03T04:13:58.322Z,13.00
2022-09-03T04:16:27.407Z,13.00
2022-09-03T04:18:55.936Z,12.90
2022-09-03T04:21:28.526Z,12.90
2022-09-03T04:23:56.368Z,13.00
2022-09-03T04:26:31.825Z,12.90
2022-09-03T04:29:01.001Z,12.90
2022-09-03T04:31:28.280Z,12.90
2022-09-03T04:33:55.041Z,12.90
2022-09-03T04:36:24.513Z,12.90
2022-09-03T04:38:55.982Z,13.00
2022-09-03T04:41:30.637Z,13.00
2022-09-03T04:43:59.772Z,13.00
2022-09-03T04:46:33.468Z,13.00
2022-09-03T04:49:01.890Z,13.00
2022-09-03T04:51:29.959Z,13.00
2022-09-03T04:53:58.929Z,13.00
2022-09-03T04:56:28.101Z,13.00
2022-09-03T04:59:13.654Z,13.00
2022-09-03T05:01:41.136Z,13.00
2022-09-03T05:04:08.514Z,13.10
2022-09-03T05:06:37.015Z,13.10
2022-09-03T05:09:05.161Z,13.20
2022-09-03T05:11:32.072Z,13.30
2022-09-03T05:14:00.372Z,13.40
2022-09-03T05:16:30.352Z,13.40
2022-09-03T05:18:59.763Z,13.40
2022-09-03T05:21:28.439Z,13.40
2022-09-03T05:23:55.815Z,13.40
2022-09-03T05:26:25.623Z,13.50
2022-09-03T05:28:57.676Z,13.50
2022-09-03T05:31:26.789Z,13.60
2022-09-03T05:33:59.736Z,13.60
2022-09-03T05:36:29.151Z,13.70
2022-09-03T05:38:56.335Z,13.70
2022-09-03T05:41:26.564Z,13.70
2022-09-03T05:43:58.707Z,13.80
2022-09-03T05:46:34.049Z,13.80
2022-09-03T05:49:02.357Z,13.90
2022-09-03T05:51:30.560Z,14.00
2022-09-03T05:53:57.924Z,14.10
2022-09-03T05:56:26.934Z,14.20
2022-09-03T05:58:56.478Z,14.30
2022-09-03T06:01:26.375Z,14.30
2022-09-03T06:03:55.642Z,14.40
2022-09-03T06:06:26.180Z,14.50
2022-09-03T06:09:02.490Z,14.60
2022-09-03T06:11:30.806Z,14.70
2022-09-03T06:14:01.319Z,14.80
2022-09-03T06:16:31.644Z,14.90
2022-09-03T06:18:59.963Z,14.90
2022-09-03T06:21:27.300Z,15.00
2022-09-03T06:23:56.881Z,15.00
2022-09-03T06:26:29.212Z,15.20
2022-09-03T06:28:57.136Z,15.30
2022-09-03T06:31:25.075Z,15.30
2022-09-03T06:33:53.760Z,15.40
2022-09-03T06:36:22.721Z,15.50
2022-09-03T06:38:52.800Z,15.60
2022-09-03T06:41:25.269Z,15.70
2022-09-03T06:44:11.770Z,15.90
2022-09-03T06:46:42.379Z,15.90
2022-09-03T06:49:10.505Z,16.00
2022-09-03T06:51:38.929Z,16.10
2022-09-03T06:54:07.804Z,16.10
2022-09-03T06:56:40.003Z,16.10
2022-09-03T06:59:13.065Z,16.20
2022-09-03T07:01:44.482Z,16.30
2022-09-03T07:04:12.860Z,16.40
2022-09-03T07:06:42.515Z,16.50
2022-09-03T07:09:11.560Z,16.60
2022-09-03T07:11:46.576Z,16.80
2022-09-03T07:14:14.746Z,16.90
2022-09-03T07:16:43.001Z,16.90
2022-09-03T07:19:10.032Z,17.10
2022-09-03T07:21:37.157Z,17.20
2022-09-03T07:24:05.602Z,17.30
2022-09-03T07:26:38.132Z,17.40
2022-09-03T07:29:07.684Z,17.70
2022-09-03T07:31:37.224Z,17.90
2022-09-03T07:34:10.185Z,18.30
2022-09-03T07:36:43.305Z,20.30
2022-09-03T07:39:12.146Z,21.20
2022-09-03T07:41:43.229Z,24.20
2022-09-03T07:44:10.341Z,26.00
2022-09-03T07:46:38.214Z,26.90
2022-09-03T07:51:36.263Z,28.70
2022-09-03T07:54:06.936Z,29.50
2022-09-03T07:56:35.793Z,30.50
2022-09-03T07:59:03.560Z,30.90
2022-09-03T08:01:32.764Z,31.10
2022-09-03T08:11:36.405Z,31.60
2022-09-03T08:41:43.938Z,36.30
2022-09-03T08:44:28.457Z,36.20
2022-09-03T08:47:15.892Z,36.30
2022-09-03T08:49:48.541Z,36.40
2022-09-03T08:52:33.165Z,36.40
2022-09-03T08:55:14.008Z,36.70
2022-09-03T08:57:47.844Z,35.90
2022-09-03T09:00:15.205Z,35.60
2022-09-03T09:03:14.149Z,36.20
2022-09-03T09:05:43.717Z,36.50
2022-09-03T09:08:18.001Z,36.10
2022-09-03T09:10:48.431Z,35.80
2022-09-03T09:13:24.022Z,36.10
2022-09-03T09:18:36.287Z,35.80
2022-09-03T09:21:11.920Z,35.10
2022-09-03T09:23:46.015Z,34.60
2022-09-03T09:26:19.130Z,33.80
2022-09-03T09:28:50.041Z,33.00
2022-09-03T09:43:50.751Z,32.40
2022-09-03T09:46:22.782Z,33.80
2022-09-03T09:48:51.735Z,33.90
2022-09-03T09:51:23.797Z,33.30
2022-09-03T09:54:17.143Z,33.60
2022-09-03T09:56:44.555Z,34.60
2022-09-03T09:59:13.570Z,35.30
2022-09-03T10:01:43.034Z,35.60
2022-09-03T10:04:23.215Z,36.00
2022-09-03T10:07:01.506Z,36.20
2022-09-03T10:09:31.013Z,36.50
2022-09-03T10:22:57.541Z,36.60
2022-09-03T10:25:32.962Z,35.70
2022-09-03T10:28:01.943Z,35.10
2022-09-03T10:30:33.114Z,34.60
2022-09-03T10:33:02.584Z,33.70
2022-09-03T10:35:30.635Z,32.90
2022-09-03T10:38:12.406Z,31.90
2022-09-03T10:49:02.664Z,29.00
2022-09-03T11:27:54.602Z,27.90
2022-09-03T11:30:47.340Z,27.60
2022-09-03T11:33:14.978Z,27.60
2022-09-03T11:35:43.193Z,27.50
2022-09-03T11:38:16.609Z,27.40
2022-09-03T11:40:58.360Z,27.10
2022-09-03T11:43:25.197Z,27.00
2022-09-03T11:46:12.497Z,27.00
2022-09-03T12:33:19.813Z,27.00
2022-09-03T12:35:59.189Z,26.40
2022-09-03T13:43:37.953Z,26.30
2022-09-03T13:46:20.832Z,25.70
2022-09-03T13:49:09.649Z,25.70
2022-09-03T13:51:44.943Z,25.70
2022-09-03T13:54:48.045Z,25.70
2022-09-03T13:57:34.800Z,25.70
2022-09-03T14:00:11.499Z,25.80
2022-09-03T14:02:47.418Z,25.80
2022-09-03T14:05:23.969Z,25.80
2022-09-03T14:07:57.007Z,25.80
2022-09-03T14:10:45.871Z,25.80
2022-09-03T14:13:37.186Z,25.80
2022-09-03T14:16:13.046Z,25.80
2022-09-03T14:19:11.611Z,25.90
2022-09-03T14:21:48.834Z,25.90
2022-09-03T14:24:22.987Z,25.90
2022-09-03T14:26:54.041Z,25.90
2022-09-03T14:29:28.061Z,25.80
2022-09-03T14:32:12.768Z,25.70
2022-09-03T14:35:10.399Z,25.50
2022-09-03T14:38:05.120Z,25.50
2022-09-03T14:40:45.796Z,25.40
2022-09-03T14:43:33.811Z,25.30
2022-09-03T14:46:17.922Z,25.20
2022-09-03T14:48:54.804Z,25.10
2022-09-03T14:51:28.068Z,25.00
2022-09-03T14:54:31.905Z,25.00
2022-09-03T14:57:36.164Z,24.90
2022-09-03T15:00:20.018Z,24.80
2022-09-03T15:03:12.046Z,24.70
2022-09-03T15:06:12.710Z,24.70
2022-09-03T15:09:17.108Z,24.60
2022-09-03T15:12:08.461Z,24.40
2022-09-03T15:14:47.848Z,24.40
2022-09-03T15:17:26.355Z,24.40
2022-09-03T15:20:20.717Z,24.30
2022-09-03T15:22:58.084Z,24.30
2022-09-03T15:25:49.345Z,24.30
2022-09-03T15:28:57.756Z,24.30
2022-09-03T15:31:33.911Z,24.40
2022-09-03T15:34:23.641Z,24.40
2022-09-03T15:36:54.093Z,24.40
2022-09-03T15:39:35.228Z,24.40
2022-09-03T15:42:07.901Z,24.30
2022-09-03T15:44:49.769Z,24.20
2022-09-03T15:47:50.909Z,24.20
2022-09-03T15:50:43.261Z,24.10
2022-09-03T15:53:34.784Z,24.00
2022-09-03T15:56:28.180Z,23.90
2022-09-03T15:59:33.241Z,23.80
2022-09-03T16:02:06.095Z,23.80
2022-09-03T16:05:11.411Z,23.80
2022-09-03T16:07:38.104Z,23.70
2022-09-03T16:10:25.327Z,23.70
2022-09-03T16:13:17.129Z,23.60
2022-09-03T16:15:51.877Z,23.60
2022-09-03T16:19:05.980Z,23.50
2022-09-03T16:21:50.368Z,23.50
2022-09-03T16:24:23.149Z,23.50
2022-09-03T16:27:11.243Z,23.50
2022-09-03T16:29:38.968Z,23.40
2022-09-03T16:32:40.801Z,23.40
2022-09-03T16:35:28.386Z,23.30
2022-09-03T16:38:13.736Z,23.20
2022-09-03T16:41:03.044Z,23.20
2022-09-03T16:43:42.526Z,23.20
2022-09-03T16:46:23.020Z,23.20
2022-09-03T16:49:11.198Z,23.20
2022-09-03T16:52:10.565Z,23.10
2022-09-03T16:54:57.120Z,23.10
2022-09-03T16:57:44.863Z,23.10
2022-09-03T17:00:14.660Z,23.10
2022-09-03T17:03:03.793Z,23.10
2022-09-03T17:05:48.520Z,23.10
2022-09-03T17:08:30.472Z,23.10
2022-09-03T17:10:59.962Z,23.00
2022-09-03T17:13:46.680Z,23.00
2022-09-03T17:16:20.354Z,23.00
2022-09-03T17:19:07.075Z,22.90
2022-09-03T17:22:06.450Z,22.90
2022-09-03T17:25:14.048Z,22.80
2022-09-03T17:27:49.164Z,22.80
2022-09-03T17:30:34.602Z,22.70
2022-09-03T17:33:46.340Z,22.70
2022-09-03T17:36:27.878Z,22.60
2022-09-03T17:39:09.646Z,22.60
2022-09-03T17:41:43.145Z,22.60
2022-09-03T17:44:21.600Z,22.60
2022-09-03T17:47:12.769Z,22.60
2022-09-03T17:49:50.640Z,22.50
2022-09-03T17:52:27.954Z,22.50
2022-09-03T17:55:02.364Z,22.40
2022-09-03T17:57:46.851Z,22.40
2022-09-03T18:00:25.680Z,22.40
2022-09-03T18:03:07.142Z,22.30
2022-09-03T18:06:00.850Z,22.30
2022-09-03T18:08:43.522Z,22.30
2022-09-03T18:11:28.405Z,22.20
2022-09-03T18:14:03.992Z,22.10
2022-09-03T18:16:34.876Z,22.00
2022-09-03T18:19:29.314Z,22.00
2022-09-03T18:22:19.089Z,21.90
2022-09-03T18:25:14.676Z,21.80
2022-09-03T18:28:09.861Z,21.80
2022-09-03T18:30:55.271Z,21.70
2022-09-03T18:33:44.673Z,21.70
2022-09-03T18:36:31.536Z,21.60
2022-09-03T18:39:30.475Z,21.50
2022-09-03T18:42:45.375Z,21.50
2022-09-03T18:46:22.623Z,21.40
2022-09-03T18:49:21.505Z,21.30
2022-09-03T18:52:50.820Z,21.20
2022-09-03T18:55:57.173Z,21.20
2022-09-03T18:58:59.412Z,21.20
2022-09-03T19:01:53.467Z,21.20
2022-09-03T19:05:10.668Z,21.20
2022-09-03T19:08:21.867Z,21.20
2022-09-03T19:11:13.467Z,21.20
2022-09-03T19:13:59.567Z,21.10
2022-09-03T19:17:06.707Z,21.10
2022-09-03T19:20:09.799Z,21.00
2022-09-03T19:22:59.721Z,21.00
2022-09-03T19:25:47.402Z,20.90
2022-09-03T19:28:45.043Z,20.80
2022-09-03T19:31:41.259Z,20.80
2022-09-03T19:34:38.613Z,20.70
2022-09-03T19:37:41.503Z,20.70
2022-09-03T19:40:46.160Z,20.60
2022-09-03T19:43:42.205Z,20.50
2022-09-03T19:46:33.891Z,20.50
2022-09-03T19:49:34.939Z,20.50
2022-09-03T19:52:25.019Z,20.40
2022-09-03T19:55:14.485Z,20.40
2022-09-03T19:58:02.108Z,20.30
2022-09-03T20:00:47.841Z,20.30
2022-09-03T20:03:33.170Z,20.30
2022-09-03T20:06:23.368Z,20.20
2022-09-03T20:09:09.925Z,20.10
2022-09-03T20:11:39.027Z,20.10
2022-09-03T20:14:14.113Z,20.00
2022-09-03T20:17:05.874Z,19.90
2022-09-03T20:19:37.939Z,19.80
2022-09-03T20:22:42.700Z,19.80
2022-09-03T20:25:34.502Z,19.70
2022-09-03T20:28:16.423Z,19.60
2022-09-03T20:30:58.140Z,19.60
2022-09-03T20:33:28.025Z,19.50
2022-09-03T20:36:21.904Z,19.40
2022-09-03T20:39:17.105Z,19.40
2022-09-03T20:42:04.523Z,19.30
2022-09-03T20:44:31.913Z,19.30
2022-09-03T20:47:42.026Z,19.30
2022-09-03T20:50:43.663Z,19.20
2022-09-03T20:53:32.661Z,19.10
2022-09-03T20:56:11.794Z,19.10
2022-09-03T20:59:07.676Z,19.00
2022-09-03T21:01:47.997Z,19.10
2022-09-03T21:04:24.359Z,19.00
2022-09-03T21:07:27.819Z,19.10
2022-09-03T21:10:14.943Z,19.10
2022-09-03T21:12:57.173Z,19.10
2022-09-03T21:15:26.420Z,19.00
2022-09-03T21:17:59.145Z,19.00
2022-09-03T21:20:34.659Z,19.00
2022-09-03T21:23:15.949Z,19.00
2022-09-03T21:25:54.060Z,18.90
2022-09-03T21:28:27.278Z,18.90
2022-09-03T21:31:13.918Z,18.80
2022-09-03T21:33:50.053Z,18.90
2022-09-03T21:36:30.194Z,18.80
2022-09-03T21:39:10.193Z,18.80
2022-09-03T21:41:47.557Z,18.90
2022-09-03T21:44:38.599Z,18.90
2022-09-03T21:47:10.108Z,18.90
2022-09-03T21:50:08.734Z,18.90
2022-09-03T21:52:47.737Z,18.90
2022-09-03T21:55:50.593Z,18.90
2022-09-03T21:58:29.058Z,18.90
2022-09-03T22:01:06.940Z,19.00
2022-09-03T22:03:34.162Z,19.00
2022-09-03T22:06:09.747Z,19.10
2022-09-03T22:08:46.279Z,19.10
2022-09-03T22:11:23.046Z,19.10
2022-09-03T22:13:54.428Z,19.20
2022-09-03T22:16:37.890Z,19.20
2022-09-03T22:19:07.776Z,19.20
2022-09-03T22:21:59.951Z,19.20
2022-09-03T22:24:41.686Z,19.20
2022-09-03T22:27:20.647Z,19.20
2022-09-03T22:30:08.472Z,19.20
2022-09-03T22:32:47.315Z,19.20
2022-09-03T22:35:26.063Z,19.20
2022-09-03T22:38:19.389Z,19.20
2022-09-03T22:41:16.072Z,19.20
2022-09-03T22:43:54.661Z,19.20
2022-09-03T22:46:23.506Z,19.20
2022-09-03T22:49:42.701Z,19.20
2022-09-03T22:52:44.158Z,19.30
2022-09-03T22:55:16.541Z,19.30
2022-09-03T22:58:07.193Z,19.30
2022-09-03T23:01:09.410Z,19.30
2022-09-03T23:03:49.978Z,19.30
2022-09-03T23:06:39.539Z,19.30
2022-09-03T23:09:14.050Z,19.30
2022-09-03T23:12:00.693Z,19.30
2022-09-03T23:14:56.477Z,19.30
2022-09-03T23:20:20.112Z,19.20
2022-09-03T23:23:18.032Z,19.20
2022-09-03T23:25:51.476Z,19.20
2022-09-03T23:28:31.929Z,19.10
2022-09-03T23:31:17.090Z,19.10
2022-09-03T23:33:46.086Z,19.10
2022-09-03T23:37:01.470Z,19.00
2022-09-03T23:39:31.559Z,19.00
2022-09-03T23:42:07.063Z,19.00
2022-09-03T23:44:52.943Z,19.00
2022-09-03T23:47:34.720Z,19.10
2022-09-03T23:50:13.036Z,19.00
2022-09-03T23:53:17.594Z,19.00
2022-09-03T23:55:44.275Z,19.10
2022-09-03T23:58:56.217Z,19.00
